STAL23 YPEA-YAMB
Flight info
| Callsign | STAL23 |
|---|---|
| Flight time | N/A |
| Altitude | 20000 |
| Route | PEA W839 PH Y31 LAKIR Y69 BOSLI Y67 KG J141 LEC Y94 PARRY Y195 DULIN |
| Aircraft | C17/H-SDE1E2FGHIJ5RTUWXY/LB1D1 |
Departure
| Time | N/A |
|---|---|
| Airport | RAAF Base Pearce (YPEA) |
Arrival
| Time | 2026-04-27 11:50 |
|---|---|
| Airport | RAAF Base Amberley (YAMB) |
| Time | Latitude | Longitude | Altitude | Speed | Heading |
|---|---|---|---|---|---|
| 2026-04-27 09:12 | -30.81462 | 133.84024 | 39179 ft | 458 kts | 92° |
| 2026-04-27 09:13 | -30.81353 | 133.87721 | 39180 ft | 457 kts | 92° |
| 2026-04-27 09:13 | -30.81134 | 133.95112 | 39181 ft | 457 kts | 92° |
| 2026-04-27 09:14 | -30.80909 | 134.02508 | 39180 ft | 458 kts | 92° |
| 2026-04-27 09:14 | -30.80681 | 134.09905 | 39182 ft | 458 kts | 92° |
| 2026-04-27 09:15 | -30.80447 | 134.17315 | 39178 ft | 457 kts | 92° |
| 2026-04-27 09:15 | -30.80211 | 134.24699 | 39178 ft | 456 kts | 92° |
| 2026-04-27 09:16 | -30.79971 | 134.32077 | 39177 ft | 456 kts | 92° |
| 2026-04-27 09:16 | -30.79726 | 134.39456 | 39177 ft | 457 kts | 92° |
| 2026-04-27 09:17 | -30.79477 | 134.46839 | 39180 ft | 457 kts | 92° |
| 2026-04-27 09:17 | -30.79226 | 134.54164 | 39178 ft | 456 kts | 92° |
| 2026-04-27 09:18 | -30.78969 | 134.61520 | 39181 ft | 455 kts | 93° |
| 2026-04-27 09:18 | -30.78710 | 134.68864 | 39180 ft | 455 kts | 93° |
| 2026-04-27 09:19 | -30.78444 | 134.76218 | 39180 ft | 455 kts | 93° |
| 2026-04-27 09:19 | -30.78175 | 134.83579 | 39177 ft | 455 kts | 93° |
| 2026-04-27 09:20 | -30.77903 | 134.90910 | 39179 ft | 454 kts | 93° |
| 2026-04-27 09:20 | -30.77626 | 134.98240 | 39186 ft | 453 kts | 93° |
| 2026-04-27 09:21 | -30.77347 | 135.05557 | 39186 ft | 453 kts | 93° |
| 2026-04-27 09:21 | -30.77062 | 135.12874 | 39181 ft | 453 kts | 93° |
| 2026-04-27 09:22 | -30.76775 | 135.20187 | 39179 ft | 452 kts | 94° |
| 2026-04-27 09:22 | -30.76484 | 135.27471 | 39180 ft | 450 kts | 93° |
| 2026-04-27 09:23 | -30.76189 | 135.34738 | 39180 ft | 450 kts | 93° |
| 2026-04-27 09:23 | -30.75891 | 135.42016 | 39178 ft | 450 kts | 93° |
| 2026-04-27 09:24 | -30.75588 | 135.49293 | 39179 ft | 450 kts | 93° |
| 2026-04-27 09:24 | -30.75281 | 135.56545 | 39178 ft | 449 kts | 93° |
| 2026-04-27 09:25 | -30.74972 | 135.63787 | 39178 ft | 448 kts | 93° |
| 2026-04-27 09:25 | -30.74659 | 135.71019 | 39175 ft | 448 kts | 93° |
| 2026-04-27 09:26 | -30.74340 | 135.78269 | 39177 ft | 449 kts | 93° |
| 2026-04-27 09:26 | -30.74021 | 135.85461 | 39176 ft | 448 kts | 93° |
| 2026-04-27 09:27 | -30.73696 | 135.92691 | 39177 ft | 447 kts | 93° |
| 2026-04-27 09:27 | -30.73368 | 135.99897 | 39170 ft | 447 kts | 93° |
| 2026-04-27 09:28 | -30.73035 | 136.07105 | 39169 ft | 447 kts | 92° |
| 2026-04-27 09:28 | -30.72699 | 136.14326 | 39170 ft | 448 kts | 92° |
| 2026-04-27 09:29 | -30.72415 | 136.20330 | 39168 ft | 447 kts | 92° |
| 2026-04-27 09:29 | -30.72073 | 136.27528 | 39167 ft | 446 kts | 92° |
| 2026-04-27 09:30 | -30.71727 | 136.34726 | 39170 ft | 446 kts | 92° |
| 2026-04-27 09:30 | -30.71374 | 136.41928 | 39167 ft | 446 kts | 92° |
| 2026-04-27 09:31 | -30.71020 | 136.49124 | 39159 ft | 446 kts | 92° |
| 2026-04-27 09:31 | -30.70660 | 136.56311 | 39174 ft | 445 kts | 92° |
| 2026-04-27 09:32 | -30.70299 | 136.63485 | 39171 ft | 444 kts | 92° |
| 2026-04-27 09:32 | -30.69934 | 136.70647 | 39174 ft | 444 kts | 92° |
| 2026-04-27 09:33 | -30.69564 | 136.77817 | 39163 ft | 445 kts | 92° |
| 2026-04-27 09:33 | -30.69190 | 136.84989 | 39166 ft | 444 kts | 92° |
| 2026-04-27 09:34 | -30.68813 | 136.92154 | 39168 ft | 444 kts | 92° |
| 2026-04-27 09:34 | -30.68433 | 136.99302 | 39169 ft | 443 kts | 92° |
| 2026-04-27 09:35 | -30.68049 | 137.06451 | 39173 ft | 443 kts | 92° |
| 2026-04-27 09:35 | -30.67661 | 137.13591 | 39170 ft | 444 kts | 92° |
| 2026-04-27 09:36 | -30.67270 | 137.20708 | 39169 ft | 443 kts | 92° |
| 2026-04-27 09:36 | -30.66873 | 137.27887 | 39167 ft | 442 kts | 92° |
| 2026-04-27 09:37 | -30.66474 | 137.35013 | 39174 ft | 442 kts | 92° |
| 2026-04-27 09:37 | -30.66074 | 137.42094 | 39169 ft | 443 kts | 91° |
| 2026-04-27 09:38 | -30.65667 | 137.49226 | 39174 ft | 443 kts | 91° |
| 2026-04-27 09:38 | -30.65256 | 137.56357 | 39171 ft | 442 kts | 91° |
| 2026-04-27 09:39 | -30.64843 | 137.63472 | 39172 ft | 442 kts | 91° |
| 2026-04-27 09:39 | -30.64424 | 137.70586 | 39178 ft | 442 kts | 91° |
| 2026-04-27 09:40 | -30.64003 | 137.77712 | 39177 ft | 443 kts | 90° |
| 2026-04-27 09:40 | -30.63575 | 137.84851 | 39179 ft | 443 kts | 90° |
| 2026-04-27 09:41 | -30.63146 | 137.91971 | 39179 ft | 442 kts | 90° |
| 2026-04-27 09:41 | -30.62712 | 137.99089 | 39180 ft | 442 kts | 90° |
| 2026-04-27 09:42 | -30.62275 | 138.06206 | 39182 ft | 442 kts | 90° |
| 2026-04-27 09:42 | -30.61833 | 138.13324 | 39183 ft | 443 kts | 89° |
| 2026-04-27 09:43 | -30.61387 | 138.20457 | 39191 ft | 443 kts | 89° |
| 2026-04-27 09:43 | -30.60938 | 138.27577 | 39190 ft | 442 kts | 89° |
| 2026-04-27 09:44 | -30.60484 | 138.34697 | 39199 ft | 442 kts | 89° |
| 2026-04-27 09:44 | -30.60025 | 138.41770 | 39204 ft | 443 kts | 88° |
| 2026-04-27 09:45 | -30.59192 | 138.48855 | 39205 ft | 445 kts | 82° |
| 2026-04-27 09:45 | -30.58126 | 138.55941 | 39211 ft | 445 kts | 83° |
| 2026-04-27 09:46 | -30.57066 | 138.63004 | 39213 ft | 444 kts | 82° |
| 2026-04-27 09:46 | -30.56002 | 138.70062 | 39219 ft | 444 kts | 82° |
| 2026-04-27 09:47 | -30.54935 | 138.77122 | 39224 ft | 444 kts | 82° |
| 2026-04-27 09:47 | -30.53865 | 138.84186 | 39228 ft | 445 kts | 82° |
| 2026-04-27 09:48 | -30.52791 | 138.91239 | 39225 ft | 444 kts | 82° |
| 2026-04-27 09:48 | -30.51714 | 138.98293 | 39229 ft | 444 kts | 82° |
| 2026-04-27 09:49 | -30.50633 | 139.05336 | 39228 ft | 443 kts | 82° |
| 2026-04-27 09:49 | -30.49549 | 139.12380 | 39232 ft | 444 kts | 82° |
| 2026-04-27 09:50 | -30.48460 | 139.19431 | 39229 ft | 444 kts | 82° |
| 2026-04-27 09:50 | -30.47367 | 139.26473 | 39224 ft | 444 kts | 82° |
| 2026-04-27 09:51 | -30.46272 | 139.33515 | 39216 ft | 443 kts | 82° |
| 2026-04-27 09:51 | -30.45182 | 139.40489 | 39217 ft | 443 kts | 82° |
| 2026-04-27 09:52 | -30.44080 | 139.47522 | 39215 ft | 444 kts | 82° |
| 2026-04-27 09:52 | -30.42972 | 139.54557 | 39212 ft | 444 kts | 82° |
| 2026-04-27 09:53 | -30.41863 | 139.61578 | 39206 ft | 443 kts | 82° |
| 2026-04-27 09:53 | -30.40752 | 139.68592 | 39209 ft | 442 kts | 82° |
| 2026-04-27 09:54 | -30.39635 | 139.75610 | 39208 ft | 443 kts | 82° |
| 2026-04-27 09:54 | -30.38517 | 139.82617 | 39209 ft | 443 kts | 82° |
| 2026-04-27 09:55 | -30.37394 | 139.89622 | 39201 ft | 442 kts | 82° |
| 2026-04-27 09:55 | -30.35707 | 140.00108 | 39202 ft | 441 kts | 82° |
| 2026-04-27 09:56 | -30.34575 | 140.07110 | 39204 ft | 442 kts | 82° |
| 2026-04-27 09:56 | -30.33443 | 140.14095 | 39201 ft | 442 kts | 82° |
| 2026-04-27 09:57 | -30.32303 | 140.21092 | 39198 ft | 442 kts | 82° |
| 2026-04-27 09:57 | -30.31164 | 140.28069 | 39202 ft | 441 kts | 82° |
| 2026-04-27 09:58 | -30.30020 | 140.35041 | 39204 ft | 441 kts | 82° |
| 2026-04-27 09:58 | -30.28875 | 140.42013 | 39202 ft | 441 kts | 82° |
| 2026-04-27 09:59 | -30.27721 | 140.48999 | 39200 ft | 442 kts | 82° |
| 2026-04-27 09:59 | -30.26565 | 140.55979 | 39203 ft | 441 kts | 82° |
| 2026-04-27 10:00 | -30.25407 | 140.62945 | 39206 ft | 441 kts | 82° |
| 2026-04-27 10:00 | -30.24254 | 140.69865 | 39210 ft | 441 kts | 82° |
| 2026-04-27 10:01 | -30.23087 | 140.76834 | 39210 ft | 441 kts | 82° |
| 2026-04-27 10:01 | -30.21917 | 140.83801 | 39210 ft | 442 kts | 82° |
| 2026-04-27 10:02 | -30.20744 | 140.90772 | 39213 ft | 442 kts | 82° |
| 2026-04-27 10:02 | -30.19566 | 140.97734 | 39211 ft | 441 kts | 82° |
| 2026-04-27 10:03 | -30.18398 | 141.04698 | 39210 ft | 441 kts | 82° |
| 2026-04-27 10:03 | -30.17226 | 141.11652 | 39217 ft | 442 kts | 82° |
| 2026-04-27 10:04 | -30.16045 | 141.18629 | 39215 ft | 442 kts | 82° |
| 2026-04-27 10:04 | -30.14864 | 141.25590 | 39210 ft | 442 kts | 82° |
| 2026-04-27 10:05 | -30.13680 | 141.32543 | 39213 ft | 442 kts | 82° |
| 2026-04-27 10:05 | -30.12490 | 141.39512 | 39217 ft | 442 kts | 82° |
| 2026-04-27 10:06 | -30.11296 | 141.46477 | 39209 ft | 442 kts | 82° |
| 2026-04-27 10:06 | -30.10099 | 141.53431 | 39217 ft | 441 kts | 82° |
| 2026-04-27 10:07 | -30.08900 | 141.60383 | 39220 ft | 442 kts | 82° |
| 2026-04-27 10:07 | -30.07694 | 141.67343 | 39217 ft | 442 kts | 82° |
| 2026-04-27 10:08 | -30.06487 | 141.74297 | 39218 ft | 442 kts | 82° |
| 2026-04-27 10:08 | -30.05276 | 141.81248 | 39222 ft | 441 kts | 83° |
| 2026-04-27 10:09 | -30.04071 | 141.88140 | 39219 ft | 441 kts | 83° |
| 2026-04-27 10:09 | -30.02854 | 141.95077 | 39219 ft | 442 kts | 83° |
| 2026-04-27 10:10 | -30.01631 | 142.02025 | 39218 ft | 442 kts | 83° |
| 2026-04-27 10:10 | -30.00404 | 142.08975 | 39217 ft | 442 kts | 83° |
| 2026-04-27 10:11 | -29.99174 | 142.15922 | 39213 ft | 441 kts | 83° |
| 2026-04-27 10:11 | -29.97944 | 142.22845 | 39218 ft | 441 kts | 83° |
| 2026-04-27 10:12 | -29.96706 | 142.29794 | 39219 ft | 442 kts | 83° |
| 2026-04-27 10:12 | -29.95462 | 142.36743 | 39221 ft | 443 kts | 83° |
| 2026-04-27 10:13 | -29.94219 | 142.43682 | 39224 ft | 442 kts | 83° |
| 2026-04-27 10:13 | -29.92969 | 142.50622 | 39212 ft | 442 kts | 84° |
| 2026-04-27 10:14 | -29.91716 | 142.57565 | 39217 ft | 442 kts | 83° |
| 2026-04-27 10:14 | -29.90459 | 142.64511 | 39222 ft | 443 kts | 84° |
| 2026-04-27 10:15 | -29.89409 | 142.70286 | 39217 ft | 444 kts | 83° |
| 2026-04-27 10:15 | -29.87933 | 142.78368 | 39220 ft | 443 kts | 84° |
| 2026-04-27 10:16 | -29.86870 | 142.84173 | 39221 ft | 442 kts | 84° |
| 2026-04-27 10:16 | -29.85598 | 142.91094 | 39221 ft | 442 kts | 84° |
| 2026-04-27 10:17 | -29.84322 | 142.98024 | 39222 ft | 443 kts | 84° |
| 2026-04-27 10:17 | -29.83039 | 143.04964 | 39222 ft | 443 kts | 84° |
| 2026-04-27 10:18 | -29.81756 | 143.11888 | 39219 ft | 441 kts | 84° |
| 2026-04-27 10:18 | -29.80475 | 143.18777 | 39226 ft | 440 kts | 84° |
| 2026-04-27 10:19 | -29.79189 | 143.25672 | 39224 ft | 441 kts | 84° |
| 2026-04-27 10:19 | -29.77897 | 143.32580 | 39225 ft | 442 kts | 84° |
| 2026-04-27 10:20 | -29.76598 | 143.39501 | 39222 ft | 442 kts | 84° |
| 2026-04-27 10:20 | -29.75297 | 143.46411 | 39226 ft | 442 kts | 84° |
| 2026-04-27 10:21 | -29.73994 | 143.53318 | 39223 ft | 442 kts | 84° |
| 2026-04-27 10:21 | -29.72694 | 143.60182 | 39227 ft | 442 kts | 84° |
| 2026-04-27 10:22 | -29.71382 | 143.67092 | 39227 ft | 442 kts | 84° |
| 2026-04-27 10:22 | -29.70068 | 143.73995 | 39230 ft | 442 kts | 83° |
| 2026-04-27 10:23 | -29.68747 | 143.80904 | 39226 ft | 442 kts | 83° |
| 2026-04-27 10:23 | -29.67425 | 143.87807 | 39229 ft | 442 kts | 83° |
| 2026-04-27 10:24 | -29.66098 | 143.94706 | 39222 ft | 442 kts | 83° |
| 2026-04-27 10:24 | -29.64769 | 144.01604 | 39218 ft | 442 kts | 83° |
| 2026-04-27 10:25 | -29.63437 | 144.08492 | 39215 ft | 441 kts | 83° |
| 2026-04-27 10:25 | -29.62103 | 144.15373 | 39222 ft | 441 kts | 83° |
| 2026-04-27 10:26 | -29.60766 | 144.22252 | 39220 ft | 440 kts | 83° |
| 2026-04-27 10:26 | -29.59427 | 144.29118 | 39222 ft | 440 kts | 83° |
| 2026-04-27 10:27 | -29.58087 | 144.35962 | 39218 ft | 439 kts | 83° |
| 2026-04-27 10:27 | -29.56744 | 144.42817 | 39220 ft | 440 kts | 83° |
| 2026-04-27 10:28 | -29.55395 | 144.49670 | 39215 ft | 440 kts | 83° |
| 2026-04-27 10:28 | -29.54043 | 144.56527 | 39216 ft | 440 kts | 83° |
| 2026-04-27 10:29 | -29.52685 | 144.63386 | 39225 ft | 440 kts | 83° |
| 2026-04-27 10:29 | -29.51329 | 144.70224 | 39220 ft | 439 kts | 82° |
| 2026-04-27 10:30 | -29.49976 | 144.77020 | 39216 ft | 440 kts | 82° |
| 2026-04-27 10:30 | -29.48611 | 144.83863 | 39222 ft | 441 kts | 82° |
| 2026-04-27 10:31 | -29.47240 | 144.90715 | 39219 ft | 440 kts | 82° |
| 2026-04-27 10:31 | -29.45866 | 144.97562 | 39218 ft | 440 kts | 82° |
| 2026-04-27 10:32 | -29.44492 | 145.04388 | 39214 ft | 439 kts | 82° |
| 2026-04-27 10:32 | -29.43112 | 145.11226 | 39217 ft | 439 kts | 82° |
| 2026-04-27 10:33 | -29.41730 | 145.18045 | 39218 ft | 439 kts | 82° |
| 2026-04-27 10:33 | -29.40346 | 145.24868 | 39219 ft | 439 kts | 81° |
| 2026-04-27 10:34 | -29.38956 | 145.31692 | 39211 ft | 439 kts | 81° |
| 2026-04-27 10:34 | -29.37566 | 145.38507 | 39220 ft | 439 kts | 81° |
| 2026-04-27 10:35 | -29.36171 | 145.45316 | 39215 ft | 439 kts | 81° |
| 2026-04-27 10:35 | -29.34774 | 145.52129 | 39218 ft | 439 kts | 81° |
| 2026-04-27 10:36 | -29.33370 | 145.58940 | 39212 ft | 439 kts | 81° |
| 2026-04-27 10:36 | -29.31966 | 145.65749 | 39214 ft | 438 kts | 80° |
| 2026-04-27 10:37 | -29.30563 | 145.72525 | 39214 ft | 437 kts | 80° |
| 2026-04-27 10:37 | -29.29159 | 145.79296 | 39216 ft | 437 kts | 80° |
| 2026-04-27 10:38 | -29.27748 | 145.86070 | 39215 ft | 437 kts | 79° |
| 2026-04-27 10:38 | -29.26336 | 145.92841 | 39216 ft | 437 kts | 79° |
| 2026-04-27 10:39 | -29.24921 | 145.99602 | 39210 ft | 436 kts | 79° |
| 2026-04-27 10:39 | -29.23516 | 146.06306 | 39212 ft | 435 kts | 79° |
| 2026-04-27 10:40 | -29.22089 | 146.13086 | 39215 ft | 436 kts | 79° |
| 2026-04-27 10:40 | -29.20666 | 146.19840 | 39211 ft | 437 kts | 78° |
| 2026-04-27 10:41 | -29.19248 | 146.26543 | 39212 ft | 436 kts | 78° |
| 2026-04-27 10:41 | -29.17821 | 146.33274 | 39209 ft | 435 kts | 78° |
| 2026-04-27 10:42 | -29.16395 | 146.39982 | 39208 ft | 434 kts | 78° |
| 2026-04-27 10:42 | -29.14966 | 146.46690 | 39205 ft | 434 kts | 78° |
| 2026-04-27 10:43 | -29.13530 | 146.53405 | 39206 ft | 434 kts | 78° |
| 2026-04-27 10:43 | -29.12095 | 146.60113 | 39208 ft | 433 kts | 77° |
| 2026-04-27 10:44 | -29.10655 | 146.66798 | 39208 ft | 433 kts | 77° |
| 2026-04-27 10:44 | -29.09217 | 146.73478 | 39208 ft | 433 kts | 77° |
| 2026-04-27 10:45 | -29.07770 | 146.80162 | 39203 ft | 433 kts | 77° |
| 2026-04-27 10:45 | -29.06325 | 146.86839 | 39206 ft | 433 kts | 77° |
| 2026-04-27 10:46 | -29.04872 | 146.93517 | 39205 ft | 432 kts | 77° |
| 2026-04-27 10:46 | -29.03425 | 147.00164 | 39207 ft | 431 kts | 76° |
| 2026-04-27 10:47 | -29.01969 | 147.06827 | 39202 ft | 432 kts | 76° |
| 2026-04-27 10:47 | -29.00515 | 147.13474 | 39205 ft | 432 kts | 76° |
| 2026-04-27 10:48 | -28.99053 | 147.20130 | 39204 ft | 431 kts | 76° |
| 2026-04-27 10:48 | -28.97593 | 147.26769 | 39209 ft | 431 kts | 76° |
| 2026-04-27 10:49 | -28.96139 | 147.33356 | 39208 ft | 430 kts | 76° |
| 2026-04-27 10:49 | -28.94666 | 147.40018 | 39209 ft | 430 kts | 75° |
| 2026-04-27 10:50 | -28.93197 | 147.46638 | 39208 ft | 430 kts | 75° |
| 2026-04-27 10:50 | -28.91737 | 147.53211 | 39207 ft | 430 kts | 75° |
| 2026-04-27 10:51 | -28.90265 | 147.59814 | 39207 ft | 429 kts | 75° |
| 2026-04-27 10:51 | -28.88795 | 147.66401 | 39209 ft | 429 kts | 75° |
| 2026-04-27 10:52 | -28.87313 | 147.73015 | 39210 ft | 429 kts | 75° |
| 2026-04-27 10:52 | -28.85836 | 147.79599 | 39208 ft | 429 kts | 75° |
| 2026-04-27 10:53 | -28.83607 | 147.89499 | 39046 ft | 433 kts | 75° |
| 2026-04-27 10:53 | -28.82848 | 147.92859 | 38523 ft | 439 kts | 75° |
| 2026-04-27 10:54 | -28.82088 | 147.96220 | 37962 ft | 435 kts | 74° |
| 2026-04-27 10:54 | -28.81337 | 147.99539 | 37428 ft | 430 kts | 74° |
| 2026-04-27 10:54 | -28.80593 | 148.02826 | 36895 ft | 425 kts | 74° |
| 2026-04-27 10:54 | -28.79854 | 148.06081 | 36384 ft | 424 kts | 74° |
| 2026-04-27 10:55 | -28.79114 | 148.09342 | 35861 ft | 425 kts | 74° |
| 2026-04-27 10:55 | -28.78369 | 148.12616 | 35391 ft | 427 kts | 74° |
| 2026-04-27 10:55 | -28.77621 | 148.15899 | 34908 ft | 429 kts | 74° |
| 2026-04-27 10:55 | -28.76875 | 148.19178 | 34426 ft | 428 kts | 74° |
| 2026-04-27 10:56 | -28.76126 | 148.22459 | 33913 ft | 427 kts | 74° |
| 2026-04-27 10:56 | -28.75376 | 148.25737 | 33372 ft | 428 kts | 74° |
| 2026-04-27 10:56 | -28.74622 | 148.29035 | 32842 ft | 431 kts | 74° |
| 2026-04-27 10:56 | -28.73864 | 148.32348 | 32329 ft | 434 kts | 74° |
| 2026-04-27 10:57 | -28.73100 | 148.35677 | 31818 ft | 436 kts | 75° |
| 2026-04-27 10:57 | -28.72333 | 148.39020 | 31320 ft | 437 kts | 75° |
| 2026-04-27 10:57 | -28.71565 | 148.42366 | 30829 ft | 438 kts | 75° |
| 2026-04-27 10:57 | -28.70799 | 148.45690 | 30357 ft | 440 kts | 75° |
| 2026-04-27 10:58 | -28.70021 | 148.49066 | 29803 ft | 443 kts | 75° |
| 2026-04-27 10:58 | -28.69237 | 148.52468 | 29251 ft | 445 kts | 75° |
| 2026-04-27 10:58 | -28.68439 | 148.55921 | 28702 ft | 445 kts | 75° |
| 2026-04-27 10:58 | -28.67662 | 148.59283 | 28183 ft | 445 kts | 75° |
| 2026-04-27 10:59 | -28.66872 | 148.62692 | 27652 ft | 446 kts | 75° |
| 2026-04-27 10:59 | -28.66078 | 148.66116 | 27137 ft | 448 kts | 75° |
| 2026-04-27 10:59 | -28.65284 | 148.69538 | 26646 ft | 449 kts | 75° |
| 2026-04-27 11:00 | -28.63685 | 148.76411 | 25662 ft | 449 kts | 75° |
| 2026-04-27 11:00 | -28.62886 | 148.79840 | 25170 ft | 449 kts | 75° |
| 2026-04-27 11:00 | -28.62082 | 148.83290 | 24716 ft | 450 kts | 75° |
| 2026-04-27 11:00 | -28.61279 | 148.86730 | 24252 ft | 451 kts | 75° |
| 2026-04-27 11:01 | -28.60474 | 148.90170 | 23798 ft | 450 kts | 75° |
| 2026-04-27 11:01 | -28.59666 | 148.93618 | 23260 ft | 451 kts | 75° |
| 2026-04-27 11:01 | -28.58858 | 148.97071 | 22725 ft | 452 kts | 75° |
| 2026-04-27 11:01 | -28.58323 | 148.99351 | 22371 ft | 453 kts | 75° |
| 2026-04-27 11:02 | -28.57231 | 149.03996 | 21674 ft | 454 kts | 75° |
| 2026-04-27 11:02 | -28.56689 | 149.06296 | 21349 ft | 454 kts | 75° |
| 2026-04-27 11:02 | -28.55873 | 149.09763 | 20852 ft | 455 kts | 75° |
| 2026-04-27 11:02 | -28.55054 | 149.13241 | 20360 ft | 456 kts | 75° |
| 2026-04-27 11:03 | -28.54230 | 149.16728 | 19875 ft | 456 kts | 75° |
| 2026-04-27 11:03 | -28.53407 | 149.20208 | 19408 ft | 456 kts | 75° |
| 2026-04-27 11:03 | -28.52570 | 149.23748 | 18928 ft | 456 kts | 75° |
| 2026-04-27 11:03 | -28.51758 | 149.27172 | 18469 ft | 457 kts | 75° |
| 2026-04-27 11:04 | -28.50927 | 149.30680 | 17920 ft | 458 kts | 75° |
| 2026-04-27 11:04 | -28.50094 | 149.34181 | 17413 ft | 459 kts | 75° |
| 2026-04-27 11:04 | -28.49260 | 149.37689 | 16887 ft | 460 kts | 75° |
| 2026-04-27 11:04 | -28.48427 | 149.41191 | 16385 ft | 460 kts | 75° |
| 2026-04-27 11:05 | -28.47588 | 149.44704 | 15886 ft | 461 kts | 75° |
| 2026-04-27 11:05 | -28.46749 | 149.48224 | 15392 ft | 462 kts | 75° |
| 2026-04-27 11:05 | -28.45907 | 149.51745 | 14918 ft | 463 kts | 75° |
| 2026-04-27 11:05 | -28.45062 | 149.55273 | 14437 ft | 463 kts | 75° |
| 2026-04-27 11:06 | -28.44216 | 149.58810 | 13973 ft | 465 kts | 75° |
| 2026-04-27 11:06 | -28.43363 | 149.62364 | 13452 ft | 465 kts | 75° |
| 2026-04-27 11:06 | -28.42513 | 149.65905 | 12925 ft | 465 kts | 75° |
| 2026-04-27 11:06 | -28.41661 | 149.69447 | 12413 ft | 464 kts | 75° |
| 2026-04-27 11:07 | -28.40808 | 149.72986 | 11916 ft | 465 kts | 75° |
| 2026-04-27 11:07 | -28.39953 | 149.76537 | 11421 ft | 466 kts | 75° |
| 2026-04-27 11:07 | -28.39111 | 149.80015 | 10936 ft | 434 kts | 75° |
| 2026-04-27 11:07 | -28.38412 | 149.82902 | 10429 ft | 299 kts | 75° |
| 2026-04-27 11:08 | -28.37880 | 149.85104 | 10125 ft | 283 kts | 75° |
| 2026-04-27 11:08 | -28.37367 | 149.87242 | 9872 ft | 278 kts | 75° |
| 2026-04-27 11:08 | -28.36856 | 149.89352 | 9617 ft | 277 kts | 75° |
| 2026-04-27 11:08 | -28.36343 | 149.91462 | 9358 ft | 277 kts | 75° |
| 2026-04-27 11:09 | -28.35836 | 149.93542 | 9103 ft | 276 kts | 75° |
| 2026-04-27 11:09 | -28.35328 | 149.95639 | 8854 ft | 275 kts | 76° |
| 2026-04-27 11:09 | -28.34821 | 149.97729 | 8600 ft | 274 kts | 76° |
| 2026-04-27 11:09 | -28.34313 | 149.99816 | 8347 ft | 274 kts | 76° |
| 2026-04-27 11:10 | -28.33807 | 150.01899 | 8100 ft | 273 kts | 76° |
| 2026-04-27 11:10 | -28.33302 | 150.03973 | 7859 ft | 272 kts | 76° |
| 2026-04-27 11:10 | -28.32798 | 150.06038 | 7606 ft | 271 kts | 76° |
| 2026-04-27 11:10 | -28.32296 | 150.08099 | 7356 ft | 271 kts | 76° |
| 2026-04-27 11:11 | -28.31794 | 150.10157 | 7116 ft | 270 kts | 76° |
| 2026-04-27 11:11 | -28.31295 | 150.12204 | 6902 ft | 270 kts | 76° |
| 2026-04-27 11:11 | -28.30792 | 150.14260 | 6657 ft | 270 kts | 76° |
| 2026-04-27 11:11 | -28.30292 | 150.16304 | 6400 ft | 268 kts | 76° |
| 2026-04-27 11:12 | -28.29793 | 150.18339 | 6155 ft | 266 kts | 76° |
| 2026-04-27 11:12 | -28.29301 | 150.20359 | 5902 ft | 264 kts | 76° |
| 2026-04-27 11:12 | -28.28811 | 150.22364 | 5649 ft | 263 kts | 76° |
| 2026-04-27 11:12 | -28.28323 | 150.24345 | 5477 ft | 260 kts | 76° |
| 2026-04-27 11:13 | -28.27839 | 150.26320 | 5397 ft | 260 kts | 76° |
| 2026-04-27 11:13 | -28.27352 | 150.28295 | 5361 ft | 261 kts | 76° |
| 2026-04-27 11:13 | -28.26865 | 150.30277 | 5346 ft | 261 kts | 76° |
| 2026-04-27 11:13 | -28.26379 | 150.32262 | 5336 ft | 261 kts | 76° |
| 2026-04-27 11:14 | -28.25890 | 150.34255 | 5342 ft | 262 kts | 76° |
| 2026-04-27 11:14 | -28.25398 | 150.36248 | 5341 ft | 262 kts | 76° |
| 2026-04-27 11:14 | -28.24907 | 150.38234 | 5343 ft | 262 kts | 76° |
| 2026-04-27 11:14 | -28.24416 | 150.40226 | 5324 ft | 262 kts | 76° |
| 2026-04-27 11:15 | -28.23927 | 150.42218 | 5337 ft | 262 kts | 76° |
| 2026-04-27 11:15 | -28.23437 | 150.44199 | 5325 ft | 261 kts | 76° |
| 2026-04-27 11:15 | -28.22948 | 150.46175 | 5325 ft | 260 kts | 76° |
| 2026-04-27 11:15 | -28.22459 | 150.48153 | 5324 ft | 261 kts | 76° |
| 2026-04-27 11:16 | -28.21970 | 150.50138 | 5336 ft | 261 kts | 76° |
| 2026-04-27 11:16 | -28.21480 | 150.52117 | 5339 ft | 261 kts | 76° |
| 2026-04-27 11:16 | -28.20988 | 150.54098 | 5336 ft | 261 kts | 76° |
| 2026-04-27 11:16 | -28.20496 | 150.56084 | 5340 ft | 262 kts | 76° |
| 2026-04-27 11:17 | -28.20004 | 150.58070 | 5338 ft | 262 kts | 76° |
| 2026-04-27 11:17 | -28.19518 | 150.60026 | 5337 ft | 261 kts | 76° |
| 2026-04-27 11:17 | -28.19018 | 150.62032 | 5327 ft | 261 kts | 76° |
| 2026-04-27 11:17 | -28.18533 | 150.63986 | 5332 ft | 261 kts | 76° |
| 2026-04-27 11:18 | -28.18036 | 150.65987 | 5344 ft | 260 kts | 76° |
| 2026-04-27 11:18 | -28.17551 | 150.67940 | 5346 ft | 260 kts | 76° |
| 2026-04-27 11:18 | -28.17051 | 150.69938 | 5338 ft | 261 kts | 76° |
| 2026-04-27 11:18 | -28.16559 | 150.71916 | 5340 ft | 261 kts | 76° |
| 2026-04-27 11:19 | -28.16071 | 150.73869 | 5341 ft | 261 kts | 76° |
| 2026-04-27 11:19 | -28.15578 | 150.75845 | 5332 ft | 261 kts | 76° |
| 2026-04-27 11:19 | -28.15086 | 150.77818 | 5334 ft | 261 kts | 76° |
| 2026-04-27 11:19 | -28.14591 | 150.79796 | 5347 ft | 260 kts | 76° |
| 2026-04-27 11:20 | -28.14097 | 150.81766 | 5339 ft | 260 kts | 76° |
| 2026-04-27 11:20 | -28.13604 | 150.83744 | 5336 ft | 261 kts | 76° |
| 2026-04-27 11:20 | -28.13108 | 150.85718 | 5347 ft | 260 kts | 76° |
| 2026-04-27 11:20 | -28.12615 | 150.87685 | 5345 ft | 260 kts | 75° |
| 2026-04-27 11:21 | -28.12121 | 150.89656 | 5349 ft | 260 kts | 75° |
| 2026-04-27 11:21 | -28.11626 | 150.91628 | 5342 ft | 260 kts | 75° |
| 2026-04-27 11:21 | -28.11132 | 150.93598 | 5347 ft | 260 kts | 75° |
| 2026-04-27 11:21 | -28.10636 | 150.95567 | 5344 ft | 260 kts | 76° |
| 2026-04-27 11:22 | -28.10142 | 150.97533 | 5350 ft | 260 kts | 75° |
| 2026-04-27 11:22 | -28.09645 | 150.99507 | 5356 ft | 260 kts | 75° |
| 2026-04-27 11:22 | -28.09152 | 151.01471 | 5355 ft | 260 kts | 75° |
| 2026-04-27 11:22 | -28.08656 | 151.03437 | 5353 ft | 260 kts | 75° |
| 2026-04-27 11:23 | -28.08160 | 151.05407 | 5356 ft | 260 kts | 75° |
| 2026-04-27 11:23 | -28.07663 | 151.07374 | 5356 ft | 259 kts | 75° |
| 2026-04-27 11:23 | -28.07167 | 151.09334 | 5349 ft | 259 kts | 75° |
| 2026-04-27 11:23 | -28.06671 | 151.11295 | 5349 ft | 259 kts | 75° |
| 2026-04-27 11:24 | -28.06177 | 151.13255 | 5345 ft | 259 kts | 75° |
| 2026-04-27 11:24 | -28.05682 | 151.15212 | 5343 ft | 258 kts | 75° |
| 2026-04-27 11:24 | -28.05188 | 151.17164 | 5348 ft | 258 kts | 75° |
| 2026-04-27 11:24 | -28.04693 | 151.19120 | 5339 ft | 259 kts | 75° |
| 2026-04-27 11:25 | -28.04196 | 151.21075 | 5345 ft | 258 kts | 75° |
| 2026-04-27 11:25 | -28.03704 | 151.23021 | 5347 ft | 258 kts | 75° |
| 2026-04-27 11:25 | -28.03208 | 151.24970 | 5344 ft | 258 kts | 75° |
| 2026-04-27 11:25 | -28.02715 | 151.26915 | 5353 ft | 257 kts | 75° |
| 2026-04-27 11:26 | -28.02223 | 151.28862 | 5358 ft | 259 kts | 75° |
| 2026-04-27 11:26 | -28.01722 | 151.30818 | 5350 ft | 258 kts | 75° |
| 2026-04-27 11:26 | -28.01226 | 151.32768 | 5362 ft | 257 kts | 75° |
| 2026-04-27 11:26 | -28.00732 | 151.34711 | 5362 ft | 258 kts | 75° |
| 2026-04-27 11:27 | -28.00235 | 151.36664 | 5355 ft | 257 kts | 75° |
| 2026-04-27 11:27 | -27.99741 | 151.38604 | 5346 ft | 257 kts | 75° |
| 2026-04-27 11:27 | -27.99243 | 151.40552 | 5353 ft | 257 kts | 75° |
| 2026-04-27 11:27 | -27.98749 | 151.42483 | 5348 ft | 256 kts | 75° |
| 2026-04-27 11:28 | -27.98255 | 151.44420 | 5352 ft | 256 kts | 75° |
| 2026-04-27 11:28 | -27.97761 | 151.46355 | 5352 ft | 256 kts | 75° |
| 2026-04-27 11:28 | -27.97268 | 151.48287 | 5361 ft | 255 kts | 75° |
| 2026-04-27 11:28 | -27.96774 | 151.50214 | 5350 ft | 255 kts | 75° |
| 2026-04-27 11:29 | -27.96283 | 151.52125 | 5363 ft | 255 kts | 75° |
| 2026-04-27 11:29 | -27.95792 | 151.54046 | 5362 ft | 255 kts | 75° |
| 2026-04-27 11:29 | -27.95297 | 151.55975 | 5356 ft | 255 kts | 75° |
| 2026-04-27 11:29 | -27.94803 | 151.57904 | 5352 ft | 255 kts | 75° |
| 2026-04-27 11:30 | -27.94311 | 151.59824 | 5346 ft | 255 kts | 75° |
| 2026-04-27 11:30 | -27.93815 | 151.61749 | 5356 ft | 254 kts | 75° |
| 2026-04-27 11:30 | -27.93320 | 151.63673 | 5358 ft | 255 kts | 75° |
| 2026-04-27 11:30 | -27.92827 | 151.65594 | 5352 ft | 254 kts | 75° |
| 2026-04-27 11:31 | -27.92331 | 151.67513 | 5359 ft | 254 kts | 75° |
| 2026-04-27 11:31 | -27.91838 | 151.69438 | 5347 ft | 255 kts | 75° |
| 2026-04-27 11:31 | -27.91343 | 151.71353 | 5348 ft | 254 kts | 75° |
| 2026-04-27 11:31 | -27.90847 | 151.73276 | 5358 ft | 255 kts | 75° |
| 2026-04-27 11:32 | -27.90352 | 151.75196 | 5360 ft | 255 kts | 75° |
| 2026-04-27 11:32 | -27.89857 | 151.77113 | 5361 ft | 253 kts | 75° |
| 2026-04-27 11:32 | -27.89363 | 151.79028 | 5363 ft | 254 kts | 75° |
| 2026-04-27 11:32 | -27.88870 | 151.80938 | 5356 ft | 254 kts | 75° |
| 2026-04-27 11:33 | -27.88374 | 151.82847 | 5357 ft | 253 kts | 76° |
| 2026-04-27 11:33 | -27.87879 | 151.84764 | 5373 ft | 254 kts | 76° |
| 2026-04-27 11:33 | -27.87381 | 151.86684 | 5370 ft | 254 kts | 76° |
| 2026-04-27 11:33 | -27.86886 | 151.88596 | 5357 ft | 253 kts | 76° |
| 2026-04-27 11:34 | -27.86391 | 151.90504 | 5358 ft | 254 kts | 76° |
| 2026-04-27 11:34 | -27.85895 | 151.92419 | 5370 ft | 254 kts | 76° |
| 2026-04-27 11:34 | -27.85402 | 151.94307 | 5360 ft | 253 kts | 76° |
| 2026-04-27 11:34 | -27.84909 | 151.96209 | 5361 ft | 253 kts | 76° |
| 2026-04-27 11:35 | -27.84415 | 151.98121 | 5363 ft | 253 kts | 76° |
| 2026-04-27 11:35 | -27.83919 | 152.00027 | 5358 ft | 253 kts | 76° |
| 2026-04-27 11:35 | -27.83421 | 152.01935 | 5363 ft | 253 kts | 76° |
| 2026-04-27 11:35 | -27.82923 | 152.03844 | 5360 ft | 253 kts | 76° |
| 2026-04-27 11:36 | -27.82426 | 152.05757 | 5370 ft | 254 kts | 76° |
| 2026-04-27 11:36 | -27.81927 | 152.07672 | 5369 ft | 255 kts | 76° |
| 2026-04-27 11:36 | -27.81427 | 152.09584 | 5364 ft | 253 kts | 76° |
| 2026-04-27 11:36 | -27.80927 | 152.11493 | 5361 ft | 255 kts | 76° |
| 2026-04-27 11:37 | -27.80426 | 152.13412 | 5352 ft | 254 kts | 76° |
| 2026-04-27 11:37 | -27.79925 | 152.15328 | 5360 ft | 254 kts | 76° |
| 2026-04-27 11:37 | -27.79427 | 152.17241 | 5364 ft | 255 kts | 76° |
| 2026-04-27 11:37 | -27.78925 | 152.19157 | 5364 ft | 253 kts | 76° |
| 2026-04-27 11:38 | -27.78425 | 152.21058 | 5306 ft | 253 kts | 76° |
| 2026-04-27 11:38 | -27.77927 | 152.22970 | 5317 ft | 255 kts | 76° |
| 2026-04-27 11:38 | -27.77423 | 152.24884 | 5338 ft | 255 kts | 77° |
| 2026-04-27 11:38 | -27.76917 | 152.26805 | 5311 ft | 257 kts | 77° |
| 2026-04-27 11:39 | -27.76412 | 152.28737 | 5195 ft | 255 kts | 77° |
| 2026-04-27 11:39 | -27.75913 | 152.30643 | 5142 ft | 253 kts | 77° |
| 2026-04-27 11:39 | -27.75410 | 152.32552 | 5115 ft | 255 kts | 76° |
| 2026-04-27 11:39 | -27.74577 | 152.34326 | 5094 ft | 261 kts | 53° |
| 2026-04-27 11:40 | -27.73362 | 152.35849 | 5094 ft | 263 kts | 51° |
| 2026-04-27 11:40 | -27.72106 | 152.37364 | 5095 ft | 263 kts | 51° |
| 2026-04-27 11:40 | -27.70858 | 152.38874 | 5075 ft | 262 kts | 53° |
| 2026-04-27 11:40 | -27.69717 | 152.40473 | 5095 ft | 261 kts | 57° |
| 2026-04-27 11:41 | -27.68624 | 152.42112 | 5097 ft | 262 kts | 57° |
| 2026-04-27 11:41 | -27.67511 | 152.43735 | 5106 ft | 262 kts | 56° |
| 2026-04-27 11:41 | -27.66381 | 152.45350 | 5097 ft | 262 kts | 56° |
| 2026-04-27 11:41 | -27.65245 | 152.46958 | 5099 ft | 263 kts | 53° |
| 2026-04-27 11:42 | -27.63799 | 152.48257 | 5099 ft | 270 kts | 35° |
| 2026-04-27 11:42 | -27.62097 | 152.49188 | 5107 ft | 274 kts | 26° |
| 2026-04-27 11:42 | -27.60281 | 152.49860 | 5103 ft | 276 kts | 20° |
| 2026-04-27 11:42 | -27.58438 | 152.50441 | 5086 ft | 275 kts | 20° |
| 2026-04-27 11:43 | -27.56621 | 152.51036 | 5066 ft | 275 kts | 21° |
| 2026-04-27 11:43 | -27.54872 | 152.51841 | 5042 ft | 270 kts | 31° |
| 2026-04-27 11:43 | -27.53229 | 152.52900 | 5041 ft | 267 kts | 37° |
| 2026-04-27 11:43 | -27.51768 | 152.54131 | 5055 ft | 266 kts | 46° |
| 2026-04-27 11:44 | -27.50389 | 152.55559 | 5084 ft | 266 kts | 47° |
| 2026-04-27 11:44 | -27.49059 | 152.56965 | 4863 ft | 269 kts | 50° |
| 2026-04-27 11:44 | -27.48289 | 152.58450 | 4317 ft | 181 kts | 84° |
| 2026-04-27 11:44 | -27.48179 | 152.59826 | 3807 ft | 171 kts | 101° |
| 2026-04-27 11:45 | -27.48533 | 152.61088 | 3392 ft | 171 kts | 116° |
| 2026-04-27 11:45 | -27.48907 | 152.61942 | 3248 ft | 180 kts | 120° |
| 2026-04-27 11:45 | -27.49789 | 152.63452 | 3098 ft | 173 kts | 129° |
| 2026-04-27 11:45 | -27.50554 | 152.64492 | 3041 ft | 172 kts | 131° |
| 2026-04-27 11:46 | -27.51431 | 152.65430 | 2583 ft | 176 kts | 146° |
| 2026-04-27 11:46 | -27.52442 | 152.66090 | 2219 ft | 158 kts | 150° |
| 2026-04-27 11:46 | -27.53339 | 152.66629 | 1954 ft | 135 kts | 152° |
| 2026-04-27 11:46 | -27.54129 | 152.67052 | 1776 ft | 117 kts | 155° |
| 2026-04-27 11:47 | -27.54820 | 152.67362 | 1619 ft | 99 kts | 155° |
| 2026-04-27 11:47 | -27.55438 | 152.67622 | 1479 ft | 92 kts | 157° |
| 2026-04-27 11:47 | -27.56041 | 152.67875 | 1409 ft | 95 kts | 158° |
| 2026-04-27 11:47 | -27.56677 | 152.68137 | 1302 ft | 98 kts | 158° |
| 2026-04-27 11:48 | -27.57104 | 152.68311 | 1214 ft | 99 kts | 159° |
| 2026-04-27 11:48 | -27.57756 | 152.68586 | 1064 ft | 100 kts | 159° |
| 2026-04-27 11:48 | -27.58627 | 152.68965 | 868 ft | 100 kts | 160° |
| 2026-04-27 11:48 | -27.59060 | 152.69156 | 784 ft | 101 kts | 160° |
| 2026-04-27 11:49 | -27.59723 | 152.69447 | 648 ft | 102 kts | 160° |
| 2026-04-27 11:49 | -27.60366 | 152.69742 | 535 ft | 96 kts | 159° |
| 2026-04-27 11:49 | -27.60962 | 152.70008 | 406 ft | 88 kts | 160° |
| 2026-04-27 11:49 | -27.61519 | 152.70248 | 276 ft | 83 kts | 160° |
| 2026-04-27 11:50 | -27.62046 | 152.70478 | 157 ft | 80 kts | 160° |
| 2026-04-27 11:50 | -27.62540 | 152.70688 | 106 ft | 66 kts | 162° |
| 2026-04-27 11:50 | -27.62919 | 152.70851 | 103 ft | 53 kts | 159° |
| 2026-04-27 11:50 | -27.63241 | 152.70992 | 99 ft | 47 kts | 159° |
| 2026-04-27 11:51 | -27.63379 | 152.71038 | 99 ft | 12 kts | 197° |
| 2026-04-27 11:51 | -27.63393 | 152.70975 | 100 ft | 13 kts | 287° |
| 2026-04-27 11:51 | -27.63319 | 152.70814 | 103 ft | 15 kts | 341° |
| 2026-04-27 11:52 | -27.63199 | 152.70762 | 101 ft | 21 kts | 337° |
| 2026-04-27 11:52 | -27.63063 | 152.70702 | 103 ft | 21 kts | 340° |
| 2026-04-27 11:52 | -27.62935 | 152.70648 | 105 ft | 19 kts | 339° |
| 2026-04-27 11:52 | -27.62807 | 152.70590 | 102 ft | 20 kts | 338° |
| 2026-04-27 11:53 | -27.62679 | 152.70531 | 104 ft | 20 kts | 338° |
| 2026-04-27 11:53 | -27.62547 | 152.70472 | 101 ft | 21 kts | 338° |
| 2026-04-27 11:53 | -27.62406 | 152.70410 | 101 ft | 22 kts | 340° |
| 2026-04-27 11:53 | -27.62267 | 152.70351 | 103 ft | 21 kts | 339° |
| 2026-04-27 11:54 | -27.62133 | 152.70294 | 103 ft | 20 kts | 339° |
| 2026-04-27 11:54 | -27.62072 | 152.70257 | 104 ft | 4 kts | 293° |
| 2026-04-27 11:54 | -27.62085 | 152.70183 | 99 ft | 15 kts | 249° |
| 2026-04-27 11:54 | -27.62122 | 152.70077 | 99 ft | 11 kts | 248° |
| 2026-04-27 11:55 | -27.62176 | 152.70032 | 100 ft | 8 kts | 166° |
| 2026-04-27 11:55 | -27.62195 | 152.70041 | 101 ft | 2 kts | 158° |
| 2026-04-27 11:55 | -27.62205 | 152.70046 | 100 ft | 0 kts | 158° |